createdAt,value
2022-11-15T00:03:59.938Z,17.92
2022-11-15T00:09:22.926Z,17.42
2022-11-15T00:14:44.488Z,16.52
2022-11-15T00:20:06.750Z,16.27
2022-11-15T00:25:29.305Z,16.05
2022-11-15T00:30:50.836Z,15.77
2022-11-15T00:36:12.668Z,17.05
2022-11-15T00:41:35.412Z,15.70
2022-11-15T00:46:56.812Z,16.25
2022-11-15T00:52:18.289Z,16.13
2022-11-15T00:57:41.021Z,14.80
2022-11-15T01:03:27.791Z,15.55
2022-11-15T01:08:49.225Z,16.45
2022-11-15T01:14:12.130Z,16.25
2022-11-15T01:19:33.584Z,14.85
2022-11-15T01:24:55.308Z,15.38
2022-11-15T01:30:18.694Z,16.30
2022-11-15T01:35:41.592Z,17.77
2022-11-15T01:41:02.955Z,16.65
2022-11-15T01:46:31.684Z,15.15
2022-11-15T01:51:53.892Z,15.23
2022-11-15T01:57:15.572Z,16.45
2022-11-15T02:02:40.177Z,13.85
2022-11-15T02:08:02.401Z,15.20
2022-11-15T02:13:24.622Z,16.98
2022-11-15T02:18:54.198Z,19.10
2022-11-15T02:24:50.474Z,13.70
2022-11-15T02:30:22.155Z,13.63
2022-11-15T02:35:49.003Z,14.02
2022-11-15T02:41:15.165Z,14.13
2022-11-15T02:47:00.675Z,14.47
2022-11-15T02:52:24.041Z,12.82
2022-11-15T02:57:51.699Z,14.20
2022-11-15T03:03:45.520Z,12.48
2022-11-15T03:09:11.525Z,12.68
2022-11-15T03:14:38.377Z,11.60
2022-11-15T03:20:03.553Z,11.75
2022-11-15T03:25:27.917Z,10.00
2022-11-15T03:30:51.844Z,9.27
2022-11-15T03:36:14.452Z,10.25
2022-11-15T03:41:41.785Z,8.43
2022-11-15T03:47:08.281Z,9.30
2022-11-15T03:52:35.208Z,9.27
2022-11-15T03:57:59.653Z,7.38
2022-11-15T04:03:20.772Z,6.03
2022-11-15T04:08:43.336Z,7.32
2022-11-15T04:14:05.009Z,5.85
2022-11-15T04:19:44.107Z,4.93
2022-11-15T04:25:07.801Z,5.25
2022-11-15T04:30:29.179Z,5.95
2022-11-15T04:36:04.968Z,7.35
2022-11-15T04:41:27.855Z,7.70
2022-11-15T04:46:49.383Z,7.93
2022-11-15T04:52:11.006Z,7.78
2022-11-15T04:57:34.031Z,8.23
2022-11-15T05:03:13.062Z,6.20
2022-11-15T05:08:34.897Z,7.03
2022-11-15T05:13:57.822Z,6.50
2022-11-15T05:19:19.091Z,6.68
2022-11-15T05:24:40.612Z,5.88
2022-11-15T05:30:03.845Z,7.15
2022-11-15T05:35:32.893Z,6.32
2022-11-15T05:40:54.388Z,6.60
2022-11-15T05:46:17.534Z,7.00
2022-11-15T05:51:39.057Z,5.97
2022-11-15T05:57:00.889Z,6.43
2022-11-15T06:02:24.523Z,6.72
2022-11-15T06:07:46.147Z,7.35
2022-11-15T06:13:08.058Z,8.95
2022-11-15T06:18:33.840Z,8.35
2022-11-15T06:23:55.568Z,8.50
2022-11-15T06:29:16.853Z,9.68
2022-11-15T06:34:39.952Z,11.05
2022-11-15T06:40:01.540Z,10.38
2022-11-15T06:45:22.973Z,12.02
2022-11-15T06:50:52.711Z,13.50
2022-11-15T06:56:14.233Z,13.10
2022-11-15T07:01:35.907Z,12.27
2022-11-15T07:06:58.869Z,14.82
2022-11-15T07:12:20.313Z,13.10
2022-11-15T07:17:42.522Z,13.00
2022-11-15T07:23:07.117Z,12.48
2022-11-15T07:28:29.340Z,20.52
2022-11-15T07:33:50.937Z,12.35
2022-11-15T07:39:15.060Z,12.45
2022-11-15T07:44:36.570Z,10.98
2022-11-15T07:49:58.245Z,8.73
2022-11-15T07:55:21.442Z,9.02
2022-11-15T08:00:43.554Z,8.57
2022-11-15T08:06:06.932Z,7.82
2022-11-15T08:11:29.746Z,9.80
2022-11-15T08:16:50.983Z,11.30
2022-11-15T08:22:12.880Z,9.07
2022-11-15T08:27:35.900Z,8.20
2022-11-15T08:33:00.284Z,8.45
2022-11-15T08:38:22.032Z,9.02
2022-11-15T08:43:44.766Z,9.13
2022-11-15T08:49:06.453Z,8.18
2022-11-15T08:54:27.946Z,8.77
2022-11-15T08:59:50.910Z,9.48
2022-11-15T09:05:12.279Z,10.00
2022-11-15T09:10:33.720Z,8.80
2022-11-15T09:15:59.449Z,9.25
2022-11-15T09:21:23.566Z,8.77
2022-11-15T09:26:45.607Z,7.35
2022-11-15T09:32:08.416Z,9.90
2022-11-15T09:37:29.671Z,5.68
2022-11-15T09:43:06.551Z,9.63
2022-11-15T09:48:51.024Z,7.63
2022-11-15T09:54:51.502Z,9.05
2022-11-15T09:59:55.901Z,22.90
2022-11-15T10:05:01.657Z,6.80
2022-11-15T10:10:14.233Z,8.35
2022-11-15T10:15:23.486Z,4.47
2022-11-15T10:20:31.051Z,7.53
2022-11-15T10:25:35.463Z,7.47
2022-11-15T10:30:40.319Z,6.22
2022-11-15T10:35:45.102Z,6.53
2022-11-15T10:40:47.851Z,6.25
2022-11-15T10:45:51.720Z,6.78
2022-11-15T10:50:56.960Z,8.55
2022-11-15T10:56:06.702Z,8.18
2022-11-15T11:01:16.352Z,5.50
2022-11-15T11:06:20.689Z,9.65
2022-11-15T11:11:23.420Z,6.65
2022-11-15T11:16:43.267Z,5.22
2022-11-15T11:27:11.182Z,5.90
2022-11-15T11:32:30.037Z,4.43
2022-11-15T11:37:41.879Z,5.45
2022-11-15T11:42:55.077Z,3.70
2022-11-15T11:48:09.730Z,4.35
2022-11-15T11:53:17.131Z,4.40
2022-11-15T11:58:28.198Z,2.88
2022-11-15T12:03:39.047Z,3.33
2022-11-15T12:08:48.448Z,2.92
2022-11-15T12:13:57.053Z,2.85
2022-11-15T12:19:03.442Z,3.20
2022-11-15T12:24:14.747Z,3.28
2022-11-15T12:29:22.289Z,2.90
2022-11-15T12:34:42.274Z,2.70
2022-11-15T12:40:19.778Z,2.28
2022-11-15T12:45:30.123Z,2.35
2022-11-15T12:50:55.787Z,2.65
2022-11-15T12:56:21.893Z,3.33
2022-11-15T13:02:02.374Z,2.83
2022-11-15T13:07:08.554Z,1.83
2022-11-15T13:12:35.862Z,3.57
2022-11-15T13:17:41.155Z,2.47
2022-11-15T13:22:52.629Z,2.53
2022-11-15T13:28:00.361Z,2.22
2022-11-15T13:33:12.133Z,4.82
2022-11-15T13:38:21.823Z,7.30
2022-11-15T13:43:37.386Z,4.03
2022-11-15T13:48:41.200Z,4.72
2022-11-15T13:53:48.543Z,5.78
2022-11-15T13:58:54.001Z,6.22
2022-11-15T14:03:58.991Z,10.15
2022-11-15T14:09:32.125Z,5.07
2022-11-15T14:14:46.873Z,8.38
2022-11-15T14:19:50.590Z,6.38
2022-11-15T14:25:19.979Z,5.05
2022-11-15T14:30:24.167Z,5.47
2022-11-15T14:35:27.825Z,5.85
2022-11-15T14:40:32.466Z,5.95
2022-11-15T14:45:37.107Z,4.78
2022-11-15T14:50:40.744Z,4.55
2022-11-15T14:55:43.569Z,5.72
2022-11-15T15:00:47.899Z,5.82
2022-11-15T15:05:52.456Z,7.13
2022-11-15T15:10:56.029Z,6.97
2022-11-15T15:16:00.914Z,7.07
2022-11-15T15:21:07.967Z,8.02
2022-11-15T15:31:15.926Z,8.23
2022-11-15T15:36:20.614Z,7.78
2022-11-15T15:41:23.594Z,12.30
2022-11-15T15:46:27.770Z,9.57
2022-11-15T15:51:30.579Z,17.60
2022-11-15T15:56:33.448Z,9.65
2022-11-15T16:01:37.581Z,9.10
2022-11-15T16:06:45.061Z,9.90
2022-11-15T16:11:48.954Z,9.40
2022-11-15T16:16:53.169Z,40.47
2022-11-15T16:21:55.892Z,9.32
2022-11-15T16:26:59.040Z,12.57
2022-11-15T16:32:03.221Z,11.93
2022-11-15T16:37:07.100Z,9.43
2022-11-15T16:42:09.995Z,9.65
2022-11-15T16:47:19.436Z,11.38
2022-11-15T16:52:22.184Z,19.98
2022-11-15T16:57:25.237Z,11.18
2022-11-15T17:02:30.405Z,13.90
2022-11-15T17:07:33.200Z,12.55
2022-11-15T17:12:36.648Z,14.68
2022-11-15T17:17:41.021Z,19.65
2022-11-15T17:22:45.249Z,10.88
2022-11-15T17:27:48.740Z,11.00
2022-11-15T17:32:53.059Z,14.68
2022-11-15T17:37:55.833Z,8.88
2022-11-15T17:42:58.686Z,7.95
2022-11-15T17:48:02.797Z,8.68
2022-11-15T17:53:05.780Z,6.53
2022-11-15T17:58:09.286Z,6.75
2022-11-15T18:03:13.636Z,7.57
2022-11-15T18:08:17.520Z,8.85
2022-11-15T18:13:20.406Z,8.77
2022-11-15T18:18:24.516Z,7.57
2022-11-15T18:23:27.310Z,5.88
2022-11-15T18:28:32.861Z,6.38
2022-11-15T18:33:37.236Z,6.88
2022-11-15T18:38:40.662Z,5.95
2022-11-15T18:43:43.856Z,6.95
2022-11-15T18:48:50.445Z,6.18
2022-11-15T18:53:54.350Z,6.13
2022-11-15T18:58:59.278Z,6.03
2022-11-15T19:04:07.897Z,7.47
2022-11-15T19:09:13.880Z,8.40
2022-11-15T19:14:18.753Z,7.55
2022-11-15T19:19:27.668Z,7.53
2022-11-15T19:24:30.455Z,7.78
2022-11-15T19:29:33.322Z,8.02
2022-11-15T19:34:37.452Z,9.10
2022-11-15T19:39:41.414Z,9.18
2022-11-15T19:44:44.320Z,9.40
2022-11-15T19:49:48.527Z,15.70
2022-11-15T19:54:51.751Z,14.00
2022-11-15T19:59:54.558Z,11.10
2022-11-15T20:04:58.933Z,13.25
2022-11-15T20:10:01.674Z,11.05
2022-11-15T20:15:05.162Z,10.25
2022-11-15T20:20:11.636Z,16.88
2022-11-15T20:25:15.318Z,19.10
2022-11-15T20:30:19.172Z,9.05
2022-11-15T20:35:23.415Z,10.93
2022-11-15T20:40:26.172Z,7.57
2022-11-15T20:45:29.039Z,7.75
2022-11-15T20:50:42.710Z,7.53
2022-11-15T20:55:48.684Z,8.30
2022-11-15T21:00:51.520Z,6.13
2022-11-15T21:05:55.980Z,5.95
2022-11-15T21:11:16.387Z,6.40
2022-11-15T21:16:19.268Z,6.20
2022-11-15T21:21:23.410Z,9.68
2022-11-15T21:26:26.173Z,8.93
2022-11-15T21:31:29.183Z,6.40
2022-11-15T21:36:33.305Z,6.30
2022-11-15T21:41:36.222Z,9.00
2022-11-15T21:46:39.120Z,6.93
2022-11-15T21:51:43.477Z,6.82
2022-11-15T21:56:46.199Z,7.03
2022-11-15T22:02:06.372Z,7.00
2022-11-15T22:07:10.537Z,6.68
2022-11-15T22:12:13.605Z,6.60
2022-11-15T22:17:16.507Z,6.30
2022-11-15T22:22:20.662Z,6.50
2022-11-15T22:27:23.606Z,6.72
2022-11-15T22:32:26.471Z,6.72
2022-11-15T22:37:31.008Z,6.80
2022-11-15T22:42:33.909Z,6.20
2022-11-15T22:47:36.770Z,5.80
2022-11-15T22:52:40.946Z,7.00
2022-11-15T22:57:43.776Z,5.72
2022-11-15T23:02:48.674Z,6.10
2022-11-15T23:07:56.064Z,6.93
2022-11-15T23:13:19.300Z,6.85
2022-11-15T23:18:22.142Z,7.85
2022-11-15T23:23:26.400Z,6.60
2022-11-15T23:28:29.306Z,7.95
2022-11-15T23:33:49.722Z,7.85
2022-11-15T23:38:54.142Z,7.25
2022-11-15T23:43:56.964Z,7.30
2022-11-15T23:49:00.030Z,7.45
2022-11-15T23:54:04.572Z,7.47
2022-11-15T23:59:07.937Z,8.18
